createdAt,value
2022-10-01T03:16:06.873Z,32.00
2022-10-01T03:18:35.447Z,32.25
2022-10-01T03:21:10.005Z,33.60
2022-10-01T03:23:48.600Z,32.58
2022-10-01T03:26:24.021Z,33.17
2022-10-01T03:28:58.045Z,32.08
2022-10-01T03:31:30.810Z,32.50
2022-10-01T03:34:09.484Z,31.70
2022-10-01T03:36:44.571Z,31.48
2022-10-01T03:39:26.658Z,30.02
2022-10-01T03:41:59.235Z,31.35
2022-10-01T03:44:38.993Z,32.30
2022-10-01T03:47:12.532Z,30.33
2022-10-01T03:49:42.839Z,30.50
2022-10-01T03:52:27.168Z,30.67
2022-10-01T03:54:58.236Z,30.95
2022-10-01T03:57:29.121Z,29.92
2022-10-01T04:00:38.692Z,31.75
2022-10-01T04:03:15.160Z,31.35
2022-10-01T04:05:58.693Z,32.47
2022-10-01T04:08:43.648Z,31.52
2022-10-01T04:11:22.371Z,29.67
2022-10-01T04:13:57.387Z,30.98
2022-10-01T04:16:28.578Z,31.23
2022-10-01T04:19:04.409Z,30.90
2022-10-01T04:21:44.351Z,29.65
2022-10-01T04:24:12.967Z,32.63
2022-10-01T04:26:50.671Z,33.05
2022-10-01T04:29:23.559Z,32.30
2022-10-01T04:32:03.734Z,31.73
2022-10-01T04:34:55.584Z,31.58
2022-10-01T04:37:27.835Z,32.38
2022-10-01T04:40:00.889Z,32.45
2022-10-01T04:42:32.798Z,33.30
2022-10-01T04:45:02.236Z,30.85
2022-10-01T04:47:36.834Z,32.83
2022-10-01T04:50:12.379Z,32.83
2022-10-01T04:52:42.783Z,33.08
2022-10-01T04:55:20.662Z,31.92
2022-10-01T04:57:58.175Z,32.70
2022-10-01T05:00:30.534Z,31.67
2022-10-01T05:03:09.397Z,32.75
2022-10-01T05:05:45.152Z,31.33
2022-10-01T05:08:13.818Z,31.30
2022-10-01T05:10:44.509Z,31.95
2022-10-01T05:13:16.689Z,31.92
2022-10-01T05:15:46.932Z,30.23
2022-10-01T05:18:26.582Z,30.77
2022-10-01T05:21:07.381Z,29.85
2022-10-01T05:23:37.659Z,30.30
2022-10-01T05:26:07.936Z,29.35
2022-10-01T05:28:44.324Z,30.17
2022-10-01T05:31:14.903Z,29.42
2022-10-01T05:33:45.744Z,29.40
2022-10-01T05:36:26.918Z,29.23
2022-10-01T05:38:58.020Z,29.60
2022-10-01T05:41:32.739Z,27.35
2022-10-01T05:44:05.395Z,28.77
2022-10-01T05:46:41.807Z,29.13
2022-10-01T05:49:12.926Z,28.08
2022-10-01T05:51:58.941Z,29.25
2022-10-01T05:54:35.915Z,28.92
2022-10-01T05:57:16.003Z,29.40
2022-10-01T06:00:02.335Z,27.58
2022-10-01T06:02:53.494Z,29.85
2022-10-01T06:05:28.782Z,28.20
2022-10-01T06:08:05.602Z,28.20
2022-10-01T06:10:47.456Z,28.60
2022-10-01T06:13:30.135Z,30.25
2022-10-01T06:16:02.415Z,26.05
2022-10-01T06:18:44.542Z,28.13
2022-10-01T06:21:12.900Z,28.10
2022-10-01T06:23:44.591Z,25.83
2022-10-01T06:26:15.312Z,27.00
2022-10-01T06:28:47.086Z,24.38
2022-10-01T06:31:15.705Z,25.17
2022-10-01T06:33:44.081Z,23.17
2022-10-01T06:36:12.572Z,22.15
2022-10-01T06:38:43.268Z,22.60
2022-10-01T06:41:12.406Z,28.48
2022-10-01T06:43:47.062Z,30.98
2022-10-01T06:46:17.981Z,23.98
2022-10-01T06:48:50.037Z,24.75
2022-10-01T06:51:40.296Z,18.75
2022-10-01T06:54:12.684Z,17.42
2022-10-01T06:56:42.762Z,17.75
2022-10-01T06:59:15.444Z,17.13
2022-10-01T07:01:56.028Z,16.55
2022-10-01T07:04:24.759Z,17.33
2022-10-01T07:06:53.330Z,17.60
2022-10-01T07:09:26.666Z,20.35
2022-10-01T07:11:55.188Z,17.30
2022-10-01T07:14:23.607Z,19.70
2022-10-01T07:16:55.746Z,20.33
2022-10-01T07:19:45.683Z,20.60
2022-10-01T07:22:14.460Z,20.27
2022-10-01T07:24:47.437Z,17.30
2022-10-01T07:27:16.356Z,19.58
2022-10-01T07:29:45.853Z,18.58
2022-10-01T07:32:21.871Z,18.30
2022-10-01T07:34:53.547Z,17.20
2022-10-01T07:37:38.074Z,17.45
2022-10-01T07:40:24.153Z,18.42
2022-10-01T07:42:56.725Z,17.83
2022-10-01T07:45:28.223Z,19.00
2022-10-01T07:47:57.528Z,20.45
2022-10-01T07:50:26.541Z,21.67
2022-10-01T07:53:00.646Z,22.02
2022-10-01T07:55:34.867Z,22.35
2022-10-01T07:58:03.905Z,22.35
2022-10-01T08:00:36.576Z,22.33
2022-10-01T08:03:05.588Z,22.55
2022-10-01T08:05:37.605Z,20.98
2022-10-01T08:08:08.795Z,19.88
2022-10-01T08:10:43.422Z,21.75
2022-10-01T08:13:16.242Z,18.40
2022-10-01T08:15:46.188Z,15.57
2022-10-01T08:18:15.166Z,16.80
2022-10-01T08:20:43.487Z,16.30
2022-10-01T08:23:14.290Z,16.05
2022-10-01T08:25:45.362Z,15.18
2022-10-01T08:28:13.931Z,14.35
2022-10-01T08:30:43.519Z,13.57
2022-10-01T08:33:13.592Z,13.77
2022-10-01T08:35:43.681Z,13.60
2022-10-01T08:38:13.266Z,13.00
2022-10-01T08:40:47.280Z,12.52
2022-10-01T08:43:29.931Z,10.20
2022-10-01T08:46:04.133Z,10.27
2022-10-01T08:48:41.395Z,11.18
2022-10-01T08:51:14.408Z,12.30
2022-10-01T08:53:46.477Z,10.02
2022-10-01T08:56:22.787Z,10.20
2022-10-01T08:58:57.831Z,10.98
2022-10-01T09:01:26.640Z,10.45
2022-10-01T09:03:55.324Z,10.55
2022-10-01T09:06:26.374Z,9.23
2022-10-01T09:09:23.884Z,9.50
2022-10-01T09:12:06.107Z,9.23
2022-10-01T09:14:56.753Z,9.48
2022-10-01T09:17:43.242Z,9.68
2022-10-01T09:20:23.890Z,10.05
2022-10-01T09:23:04.218Z,9.90
2022-10-01T09:25:35.430Z,10.27
2022-10-01T09:28:15.292Z,10.60
2022-10-01T09:30:48.764Z,10.07
2022-10-01T09:33:20.237Z,9.02
2022-10-01T09:35:52.843Z,9.70
2022-10-01T09:38:25.744Z,9.20
2022-10-01T09:40:55.913Z,8.65
2022-10-01T09:43:29.781Z,9.85
2022-10-01T09:46:00.787Z,9.00
2022-10-01T09:48:33.928Z,8.88
2022-10-01T09:51:10.294Z,10.10
2022-10-01T09:53:42.432Z,8.98
2022-10-01T09:56:17.492Z,8.45
2022-10-01T09:58:52.966Z,8.05
2022-10-01T10:01:27.868Z,7.72
2022-10-01T10:03:58.578Z,7.22
2022-10-01T10:06:32.092Z,7.38
2022-10-01T10:09:02.630Z,7.43
2022-10-01T10:11:32.744Z,7.10
2022-10-01T10:14:03.689Z,6.90
2022-10-01T10:16:35.570Z,7.63
2022-10-01T10:19:09.716Z,7.30
2022-10-01T10:21:38.610Z,7.95
2022-10-01T10:24:20.874Z,8.25
2022-10-01T10:26:54.818Z,8.48
2022-10-01T10:29:30.526Z,8.27
2022-10-01T10:31:59.883Z,8.27
2022-10-01T10:34:33.738Z,9.55
2022-10-01T10:37:06.167Z,9.98
2022-10-01T10:39:36.610Z,10.57
2022-10-01T10:42:06.209Z,9.32
2022-10-01T10:44:39.907Z,9.57
2022-10-01T10:47:11.809Z,10.20
2022-10-01T10:49:44.889Z,10.40
2022-10-01T10:52:29.932Z,10.80
2022-10-01T10:54:59.651Z,11.18
2022-10-01T10:57:30.311Z,10.93
2022-10-01T11:00:01.420Z,10.52
2022-10-01T11:02:31.523Z,10.93
2022-10-01T11:05:03.645Z,10.60
2022-10-01T11:07:33.426Z,10.75
2022-10-01T11:10:22.922Z,10.88
2022-10-01T11:13:07.516Z,10.13
2022-10-01T11:15:54.142Z,10.23
2022-10-01T11:18:48.468Z,10.02
2022-10-01T11:21:33.837Z,11.15
2022-10-01T11:24:26.635Z,11.30
2022-10-01T11:26:59.395Z,11.13
2022-10-01T11:29:40.039Z,10.18
2022-10-01T11:32:22.733Z,9.98
2022-10-01T11:35:01.238Z,11.02
2022-10-01T11:37:49.332Z,10.65
2022-10-01T11:40:25.059Z,9.93
2022-10-01T11:42:58.395Z,8.90
2022-10-01T11:45:32.129Z,9.50
2022-10-01T11:48:06.192Z,9.23
2022-10-01T11:50:39.466Z,9.48
2022-10-01T11:53:13.766Z,10.30
2022-10-01T11:56:03.608Z,8.82
2022-10-01T11:58:54.146Z,9.23
2022-10-01T12:01:30.856Z,9.80
2022-10-01T12:04:18.445Z,9.57
2022-10-01T12:06:55.464Z,9.57
2022-10-01T12:09:32.616Z,9.50
2022-10-01T12:12:06.864Z,8.82
2022-10-01T12:14:43.102Z,8.80
2022-10-01T12:17:20.144Z,7.60
2022-10-01T12:19:52.571Z,7.70
2022-10-01T12:22:30.136Z,7.50
2022-10-01T12:24:58.663Z,7.35
2022-10-01T12:27:45.069Z,6.55
2022-10-01T12:30:16.793Z,6.25
2022-10-01T12:33:02.648Z,5.90
2022-10-01T12:35:43.985Z,5.32
2022-10-01T12:38:25.498Z,6.40
2022-10-01T12:41:02.098Z,7.28
2022-10-01T12:43:58.479Z,6.32
2022-10-01T12:46:37.966Z,6.30
2022-10-01T12:49:14.723Z,6.68
2022-10-01T12:51:46.307Z,5.85
2022-10-01T12:54:45.817Z,5.72
2022-10-01T12:57:33.048Z,6.10
2022-10-01T13:00:10.131Z,5.88
2022-10-01T13:03:12.253Z,6.35
2022-10-01T13:05:49.444Z,6.13
2022-10-01T13:08:36.023Z,5.00
2022-10-01T13:11:12.260Z,5.28
2022-10-01T13:13:40.726Z,5.25
2022-10-01T13:16:15.536Z,4.63
2022-10-01T13:18:58.151Z,5.20
2022-10-01T13:21:36.051Z,4.78
2022-10-01T13:24:13.844Z,4.90
2022-10-01T13:26:48.403Z,4.53
2022-10-01T13:29:29.918Z,4.65
2022-10-01T13:32:00.318Z,4.30
2022-10-01T13:34:38.099Z,4.20
2022-10-01T13:37:14.433Z,4.88
2022-10-01T13:39:44.360Z,4.93
2022-10-01T13:42:27.209Z,4.40
2022-10-01T13:44:58.319Z,5.10
2022-10-01T13:47:27.043Z,4.13
2022-10-01T13:49:57.755Z,4.15
2022-10-01T13:52:26.052Z,4.25
2022-10-01T13:54:57.241Z,3.88
2022-10-01T13:57:36.338Z,4.35
2022-10-01T14:00:22.804Z,4.05
2022-10-01T14:03:06.411Z,3.90
2022-10-01T14:05:39.029Z,3.67
2022-10-01T14:08:26.179Z,3.65
2022-10-01T14:11:16.702Z,4.10
2022-10-01T14:14:05.805Z,4.25
2022-10-01T14:16:38.577Z,3.83
2022-10-01T14:19:06.987Z,3.83
2022-10-01T14:21:47.114Z,3.92
2022-10-01T14:24:23.701Z,4.47
2022-10-01T14:26:56.999Z,3.20
2022-10-01T14:29:41.161Z,4.13
2022-10-01T14:32:23.081Z,3.70
2022-10-01T14:35:08.629Z,4.10
2022-10-01T14:37:40.025Z,4.25
2022-10-01T14:40:18.043Z,3.70
2022-10-01T14:42:58.147Z,4.00
2022-10-01T14:45:26.583Z,4.20
2022-10-01T14:48:05.023Z,4.38
2022-10-01T14:50:35.651Z,4.93
2022-10-01T14:53:04.006Z,4.63
2022-10-01T14:55:32.776Z,4.70
2022-10-01T14:58:02.631Z,4.60
2022-10-01T15:00:32.294Z,4.60
2022-10-01T15:03:10.150Z,4.93
2022-10-01T15:05:38.717Z,5.70
2022-10-01T15:08:13.453Z,5.28
2022-10-01T15:10:46.015Z,6.50
2022-10-01T15:13:24.887Z,5.82
2022-10-01T15:15:54.140Z,6.20
2022-10-01T15:18:23.364Z,6.03
2022-10-01T15:20:57.614Z,6.45
2022-10-01T15:23:28.854Z,6.50
2022-10-01T15:25:59.542Z,5.82
2022-10-01T15:28:31.921Z,7.15
2022-10-01T15:31:01.642Z,6.57
2022-10-01T15:33:30.933Z,7.10
2022-10-01T15:36:00.955Z,7.30
2022-10-01T15:38:31.363Z,7.15
2022-10-01T15:41:26.842Z,6.70
2022-10-01T15:43:52.333Z,7.82
2022-10-01T15:46:31.497Z,8.13
2022-10-01T15:49:16.852Z,7.70
2022-10-01T15:52:06.459Z,7.97
2022-10-01T15:54:35.575Z,7.60
2022-10-01T15:57:04.939Z,7.72
2022-10-01T15:59:35.406Z,7.57
2022-10-01T16:02:09.725Z,7.78
2022-10-01T16:04:38.054Z,8.32
2022-10-01T16:07:06.149Z,7.88
2022-10-01T16:09:34.353Z,7.97
2022-10-01T16:12:06.861Z,8.48
2022-10-01T16:14:42.239Z,7.97
2022-10-01T16:17:33.509Z,7.90
2022-10-01T16:20:23.338Z,8.27
2022-10-01T16:22:51.514Z,7.53
2022-10-01T16:25:33.180Z,9.05
2022-10-01T16:28:03.954Z,9.10
2022-10-01T16:30:35.705Z,8.85
2022-10-01T16:33:06.218Z,8.73
2022-10-01T16:35:36.150Z,9.23
2022-10-01T16:38:06.846Z,9.13
2022-10-01T16:40:40.104Z,9.23
2022-10-01T16:43:09.256Z,8.93
2022-10-01T16:45:40.499Z,8.52
2022-10-01T16:48:15.675Z,9.48
2022-10-01T16:50:46.198Z,8.80
2022-10-01T16:53:16.595Z,9.18
2022-10-01T16:55:45.536Z,9.32
2022-10-01T16:58:13.870Z,8.88
2022-10-01T17:00:43.780Z,11.40
2022-10-01T17:03:17.405Z,11.13
2022-10-01T17:05:46.211Z,10.88
2022-10-01T17:08:15.260Z,10.70
2022-10-01T17:10:46.219Z,10.57
2022-10-01T17:13:15.599Z,9.80
2022-10-01T17:15:47.497Z,10.95
2022-10-01T17:18:15.679Z,11.32
2022-10-01T17:20:43.916Z,9.90
2022-10-01T17:23:13.196Z,12.15
2022-10-01T17:25:42.481Z,12.25
2022-10-01T17:28:13.834Z,12.32
2022-10-01T17:30:42.955Z,12.18
2022-10-01T17:33:13.822Z,13.15
2022-10-01T17:35:43.969Z,13.95
2022-10-01T17:38:13.440Z,15.18
2022-10-01T17:40:42.467Z,17.05
2022-10-01T17:43:12.651Z,16.70
2022-10-01T17:45:40.849Z,17.48
2022-10-01T17:48:09.871Z,16.45
2022-10-01T17:50:44.848Z,16.50
2022-10-01T17:53:14.743Z,16.58
2022-10-01T17:55:44.672Z,13.55
2022-10-01T17:58:12.870Z,16.40
2022-10-01T18:00:42.173Z,14.15
2022-10-01T18:03:10.526Z,17.42
2022-10-01T18:05:41.710Z,20.92
2022-10-01T18:08:09.791Z,21.23
2022-10-01T18:10:37.981Z,19.63
2022-10-01T18:13:06.028Z,18.15
2022-10-01T18:15:34.245Z,18.38
2022-10-01T18:19:43.193Z,18.30
2022-10-01T18:20:51.984Z,17.40
2022-10-01T18:23:21.127Z,16.40
2022-10-01T18:25:49.252Z,16.05
2022-10-01T18:28:17.408Z,16.67
2022-10-01T18:30:45.542Z,16.70
2022-10-01T18:33:14.210Z,18.80
2022-10-01T18:35:44.540Z,17.30
2022-10-01T18:38:21.912Z,17.92
2022-10-01T18:40:57.951Z,15.60
2022-10-01T18:43:27.125Z,16.80
2022-10-01T18:46:09.249Z,19.75
2022-10-01T18:48:54.833Z,15.98
2022-10-01T18:51:31.383Z,14.90
2022-10-01T18:54:22.290Z,15.82
2022-10-01T18:56:57.712Z,15.40
2022-10-01T18:59:50.615Z,16.27
2022-10-01T19:02:40.036Z,15.40
2022-10-01T19:05:42.401Z,14.10
2022-10-01T19:08:23.606Z,15.95
2022-10-01T19:11:00.093Z,16.00
2022-10-01T19:13:35.903Z,14.90
2022-10-01T19:16:13.934Z,15.38
2022-10-01T19:18:55.160Z,14.43
2022-10-01T19:21:33.615Z,14.95
2022-10-01T19:24:20.487Z,15.07
2022-10-01T19:26:59.048Z,15.95
2022-10-01T19:29:39.905Z,15.80
2022-10-01T19:32:13.751Z,15.63
2022-10-01T19:34:47.401Z,15.60
2022-10-01T19:37:21.612Z,17.63
2022-10-01T19:39:52.892Z,17.08
2022-10-01T19:42:27.617Z,17.83
2022-10-01T19:45:01.539Z,17.00
2022-10-01T19:47:40.293Z,16.88
2022-10-01T19:50:19.535Z,16.30
2022-10-01T19:52:51.560Z,16.23
2022-10-01T19:55:22.858Z,15.43
2022-10-01T19:57:53.154Z,16.38
2022-10-01T20:00:23.982Z,15.45
2022-10-01T20:02:59.955Z,16.77
2022-10-01T20:05:30.611Z,15.80
2022-10-01T20:08:07.196Z,16.92
2022-10-01T20:10:42.635Z,17.65
2022-10-01T20:13:28.827Z,18.23
2022-10-01T20:16:06.074Z,20.15
2022-10-01T20:18:41.392Z,18.98
2022-10-01T20:21:29.780Z,18.42
2022-10-01T20:24:07.519Z,19.88
2022-10-01T20:26:42.872Z,18.25
2022-10-01T20:29:32.420Z,21.05
2022-10-01T20:32:06.835Z,19.58
2022-10-01T20:34:42.848Z,19.90
2022-10-01T20:37:23.106Z,21.58
2022-10-01T20:39:56.740Z,20.55
2022-10-01T20:42:33.779Z,22.27
2022-10-01T20:45:05.640Z,23.90
2022-10-01T20:47:40.370Z,23.30
2022-10-01T20:50:15.760Z,23.67
2022-10-01T20:52:52.845Z,23.15
2022-10-01T20:55:26.718Z,25.55
2022-10-01T20:58:01.195Z,23.60
2022-10-01T21:00:31.237Z,23.83
2022-10-01T21:03:11.038Z,22.83
2022-10-01T21:05:43.021Z,22.13
2022-10-01T21:08:23.781Z,23.73
2022-10-01T21:10:55.952Z,23.63
2022-10-01T21:13:39.438Z,24.05
2022-10-01T21:16:23.684Z,24.60
2022-10-01T21:18:58.894Z,26.05
2022-10-01T21:21:33.800Z,25.30
2022-10-01T21:24:18.068Z,25.88
2022-10-01T21:26:56.695Z,25.77
2022-10-01T21:29:45.676Z,117.90
2022-10-01T21:32:29.180Z,49.53
2022-10-01T21:35:07.946Z,32.45
2022-10-01T21:37:42.990Z,36.45
2022-10-01T21:40:25.063Z,32.03
2022-10-01T21:43:02.966Z,31.25
2022-10-01T21:45:43.243Z,31.88
2022-10-01T21:48:35.938Z,33.30
2022-10-01T21:51:11.086Z,35.05
2022-10-01T21:54:09.219Z,35.63
2022-10-01T21:57:07.400Z,33.88
2022-10-01T21:59:52.983Z,33.28
2022-10-01T22:02:36.880Z,34.55
2022-10-01T22:05:19.087Z,32.75
2022-10-01T22:07:54.165Z,36.00
2022-10-01T22:10:28.368Z,33.33
2022-10-01T22:13:01.366Z,34.35
2022-10-01T22:15:33.414Z,32.55
2022-10-01T22:18:05.427Z,32.42
2022-10-01T22:20:42.376Z,32.45
2022-10-01T22:23:18.515Z,31.73
2022-10-01T22:25:57.704Z,31.88
2022-10-01T22:28:34.389Z,32.40
2022-10-01T22:31:10.363Z,30.85
2022-10-01T22:33:44.950Z,30.73
2022-10-01T22:36:20.873Z,30.80
2022-10-01T22:38:53.905Z,31.50
2022-10-01T22:41:26.951Z,30.98
2022-10-01T22:43:55.589Z,28.58
2022-10-01T22:46:53.825Z,27.17
2022-10-01T22:49:36.186Z,25.70
2022-10-01T22:52:19.273Z,24.92
2022-10-01T22:55:01.520Z,24.45
2022-10-01T22:57:43.236Z,23.98
2022-10-01T23:00:14.091Z,23.95
2022-10-01T23:02:46.361Z,23.25
2022-10-01T23:05:42.028Z,21.90
2022-10-01T23:08:23.061Z,22.27
2022-10-01T23:11:01.636Z,22.30
